createdAt,value
2022-09-12T00:00:44.781Z,9.13
2022-09-12T00:01:47.058Z,8.02
2022-09-12T00:02:53.909Z,8.23
2022-09-12T00:03:59.541Z,8.98
2022-09-12T00:05:01.666Z,9.60
2022-09-12T00:06:27.893Z,7.95
2022-09-12T00:07:30.124Z,8.65
2022-09-12T00:08:32.292Z,8.82
2022-09-12T00:09:36.713Z,8.65
2022-09-12T00:10:44.093Z,8.30
2022-09-12T00:11:47.054Z,8.88
2022-09-12T00:12:49.216Z,8.68
2022-09-12T00:13:51.980Z,8.95
2022-09-12T00:14:54.281Z,9.10
2022-09-12T00:15:56.520Z,8.98
2022-09-12T00:16:59.671Z,7.95
2022-09-12T00:18:01.804Z,8.68
2022-09-12T00:19:05.664Z,8.98
2022-09-12T00:20:09.506Z,8.93
2022-09-12T00:21:11.677Z,8.30
2022-09-12T00:22:13.803Z,9.07
2022-09-12T00:23:15.993Z,9.20
2022-09-12T00:24:18.279Z,8.70
2022-09-12T00:25:20.433Z,9.23
2022-09-12T00:26:22.816Z,8.98
2022-09-12T00:27:25.026Z,8.73
2022-09-12T00:28:28.140Z,8.68
2022-09-12T00:29:30.269Z,9.15
2022-09-12T00:30:32.908Z,8.95
2022-09-12T00:31:35.436Z,9.00
2022-09-12T00:32:37.642Z,9.20
2022-09-12T00:33:40.397Z,8.40
2022-09-12T00:34:42.546Z,8.65
2022-09-12T00:35:52.868Z,8.85
2022-09-12T00:36:55.025Z,9.05
2022-09-12T00:37:57.167Z,9.13
2022-09-12T00:38:59.520Z,9.57
2022-09-12T00:40:02.312Z,9.05
2022-09-12T00:41:17.166Z,9.18
2022-09-12T00:42:19.396Z,9.30
2022-09-12T00:43:30.851Z,9.23
2022-09-12T00:44:35.955Z,9.43
2022-09-12T00:45:38.921Z,8.68
2022-09-12T00:46:45.380Z,9.10
2022-09-12T00:47:50.687Z,9.00
2022-09-12T00:48:59.786Z,9.15
2022-09-12T00:50:04.661Z,8.90
2022-09-12T00:51:06.903Z,8.95
2022-09-12T00:52:13.454Z,8.80
2022-09-12T00:53:15.716Z,8.80
2022-09-12T00:54:24.483Z,9.45
2022-09-12T00:55:35.138Z,8.88
2022-09-12T00:56:40.081Z,9.25
2022-09-12T00:58:06.847Z,8.85
2022-09-12T00:59:15.361Z,9.07
2022-09-12T01:00:20.524Z,9.50
2022-09-12T01:01:29.223Z,9.98
2022-09-12T01:02:34.618Z,9.80
2022-09-12T01:03:36.959Z,9.77
2022-09-12T01:04:42.073Z,9.25
2022-09-12T01:06:03.429Z,9.80
2022-09-12T01:07:07.598Z,9.95
2022-09-12T01:08:10.232Z,10.15
2022-09-12T01:09:17.096Z,9.95
2022-09-12T01:10:20.514Z,9.25
2022-09-12T01:11:23.259Z,9.40
2022-09-12T01:12:26.038Z,9.40
2022-09-12T01:13:28.895Z,10.73
2022-09-12T01:14:32.653Z,9.93
2022-09-12T01:15:37.826Z,9.75
2022-09-12T01:16:40.270Z,9.70
2022-09-12T01:18:00.766Z,9.95
2022-09-12T01:19:15.113Z,9.93
2022-09-12T01:20:46.081Z,9.57
2022-09-12T01:22:15.914Z,9.85
2022-09-12T01:23:55.482Z,10.07
2022-09-12T01:25:22.321Z,10.02
2022-09-12T01:27:01.750Z,10.07
2022-09-12T01:28:06.592Z,9.95
2022-09-12T01:29:32.723Z,9.63
2022-09-12T01:31:04.008Z,10.40
2022-09-12T01:32:21.298Z,9.88
2022-09-12T01:33:29.740Z,10.30
2022-09-12T01:34:45.682Z,10.48
2022-09-12T01:36:09.182Z,10.25
2022-09-12T01:37:23.579Z,10.60
2022-09-12T01:38:29.784Z,10.50
2022-09-12T01:39:49.882Z,10.32
2022-09-12T01:41:37.453Z,10.43
2022-09-12T01:43:04.565Z,9.40
2022-09-12T01:44:35.164Z,10.25
2022-09-12T01:45:45.834Z,10.90
2022-09-12T01:47:05.606Z,9.93
2022-09-12T01:48:20.374Z,10.30
2022-09-12T01:49:40.929Z,10.48
2022-09-12T01:51:07.581Z,10.20
2022-09-12T01:52:25.726Z,10.70
2022-09-12T01:53:33.705Z,10.48
2022-09-12T01:54:41.221Z,10.88
2022-09-12T01:55:54.002Z,10.80
2022-09-12T01:57:00.927Z,10.52
2022-09-12T01:58:11.104Z,10.40
2022-09-12T01:59:26.795Z,10.68
2022-09-12T02:00:29.217Z,10.32
2022-09-12T02:01:36.652Z,11.30
2022-09-12T02:02:49.191Z,10.93
2022-09-12T02:04:02.083Z,10.80
2022-09-12T02:05:10.983Z,11.02
2022-09-12T02:06:20.667Z,11.40
2022-09-12T02:07:39.436Z,10.95
2022-09-12T02:08:47.802Z,10.73
2022-09-12T02:10:05.172Z,10.52
2022-09-12T02:11:11.158Z,10.75
2022-09-12T02:12:19.050Z,11.27
2022-09-12T02:13:55.521Z,11.63
2022-09-12T02:15:03.989Z,10.38
2022-09-12T02:16:13.506Z,10.50
2022-09-12T02:17:22.397Z,11.05
2022-09-12T02:18:27.384Z,11.43
2022-09-12T02:19:34.637Z,10.95
2022-09-12T02:20:54.887Z,11.35
2022-09-12T02:22:00.558Z,11.13
2022-09-12T02:23:06.200Z,11.15
2022-09-12T02:24:12.554Z,11.27
2022-09-12T02:25:20.659Z,11.07
2022-09-12T02:26:29.966Z,10.27
2022-09-12T02:27:44.870Z,10.93
2022-09-12T02:28:47.625Z,11.57
2022-09-12T02:29:50.094Z,10.90
2022-09-12T02:31:21.756Z,11.18
2022-09-12T02:32:29.721Z,10.65
2022-09-12T02:34:09.954Z,10.52
2022-09-12T02:35:43.995Z,10.38
2022-09-12T02:36:57.739Z,10.82
2022-09-12T02:38:08.045Z,11.50
2022-09-12T02:39:10.241Z,11.02
2022-09-12T02:40:13.802Z,11.48
2022-09-12T02:41:19.677Z,11.45
2022-09-12T02:42:22.617Z,10.73
2022-09-12T02:43:25.144Z,11.43
2022-09-12T02:44:29.466Z,11.15
2022-09-12T02:45:34.418Z,10.73
2022-09-12T02:46:44.306Z,10.38
2022-09-12T02:48:04.420Z,11.40
2022-09-12T02:49:09.252Z,11.05
2022-09-12T02:50:13.068Z,10.88
2022-09-12T02:51:19.233Z,11.18
2022-09-12T02:52:24.211Z,11.43
2022-09-12T02:53:27.529Z,10.88
2022-09-12T02:54:31.121Z,11.35
2022-09-12T02:55:35.185Z,11.13
2022-09-12T02:56:46.195Z,11.35
2022-09-12T02:57:48.576Z,11.68
2022-09-12T02:58:51.461Z,10.98
2022-09-12T02:59:57.181Z,11.77
2022-09-12T03:01:33.967Z,11.55
2022-09-12T03:03:06.413Z,10.70
2022-09-12T03:04:31.841Z,10.38
2022-09-12T03:05:49.674Z,10.95
2022-09-12T03:07:00.350Z,11.25
2022-09-12T03:08:22.205Z,11.40
2022-09-12T03:10:08.130Z,10.77
2022-09-12T03:11:39.952Z,12.02
2022-09-12T03:12:42.784Z,11.85
2022-09-12T03:13:55.481Z,11.55
2022-09-12T03:15:21.117Z,11.65
2022-09-12T03:16:50.424Z,11.02
2022-09-12T03:18:27.236Z,11.00
2022-09-12T03:19:39.217Z,11.63
2022-09-12T03:21:00.211Z,11.48
2022-09-12T03:22:28.833Z,12.20
2022-09-12T03:23:41.324Z,11.35
2022-09-12T03:24:51.969Z,11.02
2022-09-12T03:26:01.334Z,11.63
2022-09-12T03:27:16.485Z,11.75
2022-09-12T03:28:20.917Z,12.20
2022-09-12T03:29:25.484Z,11.60
2022-09-12T03:30:27.789Z,12.00
2022-09-12T03:31:30.133Z,12.38
2022-09-12T03:32:43.876Z,12.85
2022-09-12T03:33:46.177Z,12.15
2022-09-12T03:34:55.620Z,11.32
2022-09-12T03:35:58.076Z,12.30
2022-09-12T03:37:03.552Z,11.90
2022-09-12T03:38:08.122Z,12.15
2022-09-12T03:39:13.408Z,12.25
2022-09-12T03:40:15.714Z,12.73
2022-09-12T03:41:18.276Z,12.77
2022-09-12T03:42:20.390Z,12.40
2022-09-12T03:43:22.609Z,12.13
2022-09-12T03:44:27.604Z,11.88
2022-09-12T03:45:29.830Z,12.75
2022-09-12T03:46:32.162Z,11.98
2022-09-12T03:47:37.533Z,12.27
2022-09-12T03:48:40.588Z,11.93
2022-09-12T03:49:42.737Z,12.63
2022-09-12T03:50:44.903Z,12.55
2022-09-12T03:51:47.097Z,12.98
2022-09-12T03:52:49.251Z,13.02
2022-09-12T03:53:51.420Z,12.52
2022-09-12T03:54:53.610Z,12.55
2022-09-12T03:55:58.297Z,13.10
2022-09-12T03:57:03.441Z,12.15
2022-09-12T03:58:05.632Z,12.70
2022-09-12T03:59:08.182Z,12.65
2022-09-12T04:00:11.105Z,13.40
2022-09-12T04:01:25.159Z,13.02
2022-09-12T04:02:27.575Z,12.90
2022-09-12T04:03:29.751Z,12.73
2022-09-12T04:04:32.605Z,13.57
2022-09-12T04:05:37.903Z,13.02
2022-09-12T04:06:42.320Z,12.25
2022-09-12T04:07:44.447Z,13.27
2022-09-12T04:08:51.507Z,13.00
2022-09-12T04:09:54.066Z,13.20
2022-09-12T04:11:03.112Z,13.00
2022-09-12T04:12:05.710Z,12.70
2022-09-12T04:13:08.138Z,13.68
2022-09-12T04:14:10.362Z,13.02
2022-09-12T04:15:12.993Z,13.10
2022-09-12T04:16:16.204Z,13.25
2022-09-12T04:17:18.373Z,12.52
2022-09-12T04:18:22.838Z,13.70
2022-09-12T04:19:26.738Z,13.73
2022-09-12T04:20:28.953Z,13.52
2022-09-12T04:21:38.591Z,12.77
2022-09-12T04:22:40.803Z,13.23
2022-09-12T04:23:43.522Z,12.65
2022-09-12T04:24:45.690Z,13.80
2022-09-12T04:25:58.748Z,14.25
2022-09-12T04:27:02.843Z,13.25
2022-09-12T04:28:08.270Z,13.88
2022-09-12T04:29:15.115Z,13.75
2022-09-12T04:30:17.319Z,14.20
2022-09-12T04:31:22.695Z,14.00
2022-09-12T04:32:24.932Z,13.32
2022-09-12T04:33:27.080Z,13.52
2022-09-12T04:34:31.543Z,13.70
2022-09-12T04:35:35.776Z,13.35
2022-09-12T04:36:38.412Z,13.57
2022-09-12T04:37:40.571Z,14.18
2022-09-12T04:38:47.471Z,14.07
2022-09-12T04:39:49.894Z,13.35
2022-09-12T04:40:52.163Z,13.10
2022-09-12T04:42:06.663Z,13.73
2022-09-12T04:43:14.279Z,13.75
2022-09-12T04:44:16.831Z,14.20
2022-09-12T04:45:19.266Z,13.23
2022-09-12T04:46:21.915Z,14.27
2022-09-12T04:47:24.047Z,13.68
2022-09-12T04:48:26.289Z,13.70
2022-09-12T04:49:28.442Z,14.82
2022-09-12T04:50:30.693Z,14.15
2022-09-12T04:51:36.023Z,13.68
2022-09-12T04:52:38.177Z,13.25
2022-09-12T04:53:41.212Z,13.93
2022-09-12T04:54:46.209Z,14.35
2022-09-12T04:55:50.613Z,14.27
2022-09-12T04:56:53.081Z,14.98
2022-09-12T04:57:55.224Z,14.25
2022-09-12T04:58:59.302Z,13.88
2022-09-12T05:00:07.281Z,14.38
2022-09-12T05:01:18.164Z,14.63
2022-09-12T05:02:20.387Z,13.43
2022-09-12T05:03:22.569Z,13.88
2022-09-12T05:04:24.794Z,13.93
2022-09-12T05:05:26.995Z,13.75
2022-09-12T05:06:34.980Z,14.35
2022-09-12T05:07:37.432Z,14.35
2022-09-12T05:08:39.664Z,13.27
2022-09-12T05:09:42.049Z,13.32
2022-09-12T05:10:44.343Z,13.88
2022-09-12T05:13:12.128Z,13.82
2022-09-12T05:14:14.389Z,13.75
2022-09-12T05:15:16.560Z,13.88
2022-09-12T05:16:22.053Z,14.40
2022-09-12T05:17:33.355Z,15.10
2022-09-12T05:18:36.793Z,14.65
2022-09-12T05:19:39.326Z,14.23
2022-09-12T05:20:41.510Z,14.35
2022-09-12T05:21:43.944Z,14.30
2022-09-12T05:22:46.064Z,14.07
2022-09-12T05:23:51.903Z,14.45
2022-09-12T05:24:57.097Z,13.50
2022-09-12T05:26:00.749Z,13.80
2022-09-12T05:27:07.125Z,13.90
2022-09-12T05:28:09.330Z,14.00
2022-09-12T05:29:11.663Z,14.05
2022-09-12T05:30:13.940Z,13.85
2022-09-12T05:31:18.628Z,13.73
2022-09-12T05:32:20.917Z,13.25
2022-09-12T05:33:25.109Z,14.10
2022-09-12T05:34:28.018Z,14.10
2022-09-12T05:35:30.276Z,13.48
2022-09-12T05:36:33.049Z,14.23
2022-09-12T05:37:35.257Z,13.40
2022-09-12T05:38:37.945Z,13.80
2022-09-12T05:39:40.143Z,13.50
2022-09-12T05:40:45.374Z,13.80
2022-09-12T05:41:47.748Z,14.07
2022-09-12T05:42:50.936Z,13.65
2022-09-12T05:43:55.128Z,14.05
2022-09-12T05:44:57.499Z,13.60
2022-09-12T05:46:09.008Z,14.60
2022-09-12T05:47:13.124Z,14.57
2022-09-12T05:48:15.601Z,14.55
2022-09-12T05:49:17.752Z,14.68
2022-09-12T05:50:20.690Z,13.90
2022-09-12T05:51:26.686Z,14.30
2022-09-12T05:52:28.900Z,14.57
2022-09-12T05:53:31.512Z,14.98
2022-09-12T05:54:37.465Z,14.95
2022-09-12T05:55:41.963Z,14.38
2022-09-12T05:56:46.667Z,14.75
2022-09-12T05:57:49.070Z,14.68
2022-09-12T05:58:56.638Z,14.65
2022-09-12T06:00:02.989Z,14.73
2022-09-12T06:01:16.560Z,14.75
2022-09-12T06:02:18.882Z,14.63
2022-09-12T06:03:21.033Z,14.20
2022-09-12T06:04:23.859Z,14.32
2022-09-12T06:05:28.453Z,14.60
2022-09-12T06:06:32.482Z,14.07
2022-09-12T06:07:35.820Z,14.05
2022-09-12T06:08:40.315Z,14.02
2022-09-12T06:09:42.492Z,15.07
2022-09-12T06:10:44.611Z,14.60
2022-09-12T06:11:47.282Z,14.57
2022-09-12T06:12:49.505Z,14.50
2022-09-12T06:13:52.348Z,14.68
2022-09-12T06:14:54.502Z,14.52
2022-09-12T06:16:06.609Z,14.65
2022-09-12T06:17:08.749Z,14.38
2022-09-12T06:18:11.895Z,14.68
2022-09-12T06:19:16.983Z,14.75
2022-09-12T06:20:20.382Z,14.32
2022-09-12T06:21:24.202Z,14.10
2022-09-12T06:22:26.526Z,14.57
2022-09-12T06:23:28.696Z,14.10
2022-09-12T06:24:34.175Z,14.68
2022-09-12T06:25:38.616Z,13.82
2022-09-12T06:26:40.844Z,13.68
2022-09-12T06:27:43.011Z,13.95
2022-09-12T06:28:45.264Z,13.20
2022-09-12T06:29:47.399Z,14.13
2022-09-12T06:30:49.579Z,14.02
2022-09-12T06:31:51.823Z,14.27
2022-09-12T06:32:56.251Z,14.05
2022-09-12T06:34:01.667Z,14.75
2022-09-12T06:35:05.591Z,14.23
2022-09-12T06:36:16.478Z,13.20
2022-09-12T06:37:18.670Z,13.88
2022-09-12T06:38:20.803Z,14.35
2022-09-12T06:39:23.421Z,14.38
2022-09-12T06:40:25.619Z,13.98
2022-09-12T06:41:29.888Z,14.00
2022-09-12T06:42:33.021Z,13.77
2022-09-12T06:43:35.672Z,14.32
2022-09-12T06:44:37.892Z,14.57
2022-09-12T06:45:40.419Z,14.45
2022-09-12T06:46:42.931Z,13.85
2022-09-12T06:47:45.069Z,14.48
2022-09-12T06:48:50.348Z,15.13
2022-09-12T06:49:52.502Z,14.88
2022-09-12T06:50:59.001Z,14.57
2022-09-12T06:52:02.354Z,14.77
2022-09-12T06:53:07.579Z,14.15
2022-09-12T06:54:13.018Z,14.98
2022-09-12T06:55:19.460Z,14.70
2022-09-12T06:56:24.963Z,13.82
2022-09-12T06:57:30.468Z,13.90
2022-09-12T06:58:34.035Z,14.88
2022-09-12T06:59:36.197Z,14.75
2022-09-12T07:00:38.724Z,14.63
2022-09-12T07:01:42.058Z,14.20
2022-09-12T07:02:44.395Z,14.18
2022-09-12T07:03:55.955Z,14.07
2022-09-12T07:04:58.091Z,13.73
2022-09-12T07:06:09.008Z,14.25
2022-09-12T07:07:11.430Z,13.85
2022-09-12T07:08:13.587Z,13.77
2022-09-12T07:09:18.486Z,13.40
2022-09-12T07:10:22.441Z,13.85
2022-09-12T07:11:27.383Z,13.43
2022-09-12T07:12:32.438Z,13.45
2022-09-12T07:13:35.034Z,14.10
2022-09-12T07:14:37.209Z,13.73
2022-09-12T07:15:39.405Z,13.75
2022-09-12T07:16:44.650Z,13.77
2022-09-12T07:17:46.865Z,13.32
2022-09-12T07:18:58.531Z,14.52
2022-09-12T07:21:16.792Z,12.93
2022-09-12T07:22:22.319Z,13.27
2022-09-12T07:23:24.452Z,12.45
2022-09-12T07:24:26.879Z,12.70
2022-09-12T07:25:29.059Z,12.25
2022-09-12T07:26:31.505Z,12.80
2022-09-12T07:27:33.694Z,12.52
2022-09-12T07:28:36.322Z,12.75
2022-09-12T07:29:38.652Z,12.40
2022-09-12T07:30:40.920Z,12.70
2022-09-12T07:31:43.512Z,12.65
2022-09-12T07:32:45.684Z,13.02
2022-09-12T07:33:54.435Z,11.70
2022-09-12T07:34:56.844Z,12.32
2022-09-12T07:36:07.456Z,11.60
2022-09-12T07:37:09.748Z,10.90
2022-09-12T07:38:11.865Z,11.32
2022-09-12T07:39:13.992Z,12.18
2022-09-12T07:40:16.284Z,12.10
2022-09-12T07:41:24.276Z,11.88
2022-09-12T07:42:26.962Z,11.85
2022-09-12T07:43:29.237Z,11.85
2022-09-12T07:44:31.394Z,11.95
2022-09-12T07:45:34.039Z,11.13
2022-09-12T07:46:36.244Z,11.25
2022-09-12T07:47:38.442Z,11.23
2022-09-12T07:48:41.156Z,11.35
2022-09-12T07:49:43.355Z,10.70
2022-09-12T07:50:45.774Z,11.00
2022-09-12T07:51:47.957Z,11.25
2022-09-12T07:52:50.615Z,11.93
2022-09-12T07:53:52.908Z,11.75
2022-09-12T07:54:58.807Z,11.07
2022-09-12T07:56:01.376Z,10.68
2022-09-12T07:57:03.673Z,11.45
2022-09-12T07:58:05.814Z,11.18
2022-09-12T07:59:08.790Z,11.27
2022-09-12T08:00:13.732Z,10.73
2022-09-12T08:01:21.292Z,10.80
2022-09-12T08:02:23.495Z,10.07
2022-09-12T08:03:25.709Z,10.07
2022-09-12T08:04:27.846Z,10.15
2022-09-12T08:05:30.122Z,9.82
2022-09-12T08:06:36.016Z,9.70
2022-09-12T08:07:38.369Z,9.70
2022-09-12T08:08:40.770Z,9.63
2022-09-12T08:09:42.908Z,8.52
2022-09-12T08:10:45.088Z,9.43
2022-09-12T08:11:47.290Z,9.23
2022-09-12T08:12:50.499Z,9.35
2022-09-12T08:13:55.877Z,8.45
2022-09-12T08:15:01.390Z,9.18
2022-09-12T08:16:08.722Z,9.80
2022-09-12T08:17:10.936Z,9.55
2022-09-12T08:18:13.088Z,9.70
2022-09-12T08:19:15.350Z,9.25
2022-09-12T08:20:18.196Z,9.55
2022-09-12T08:21:23.465Z,9.32
2022-09-12T08:22:25.969Z,9.55
2022-09-12T08:23:31.875Z,9.13
2022-09-12T08:24:34.320Z,8.77
2022-09-12T08:25:42.689Z,8.40
2022-09-12T08:26:44.850Z,8.13
2022-09-12T08:27:47.026Z,8.00
2022-09-12T08:28:49.434Z,8.00
2022-09-12T08:29:55.594Z,8.63
2022-09-12T08:31:04.607Z,8.30
2022-09-12T08:32:06.988Z,8.63
2022-09-12T08:33:09.133Z,8.68
2022-09-12T08:34:11.307Z,8.40
2022-09-12T08:35:15.415Z,7.72
2022-09-12T08:36:19.997Z,8.05
2022-09-12T08:37:23.220Z,8.32
2022-09-12T08:38:25.428Z,8.00
2022-09-12T08:39:27.624Z,7.82
2022-09-12T08:40:30.254Z,7.60
2022-09-12T08:41:38.458Z,8.10
2022-09-12T08:42:54.290Z,7.55
2022-09-12T08:44:05.443Z,7.38
2022-09-12T08:45:35.560Z,6.90
2022-09-12T08:46:50.111Z,7.07
2022-09-12T08:47:52.766Z,7.10
2022-09-12T08:48:58.231Z,7.40
2022-09-12T08:50:12.655Z,6.90
2022-09-12T08:51:21.710Z,6.47
2022-09-12T08:52:27.763Z,6.22
2022-09-12T08:53:33.978Z,6.20
2022-09-12T08:54:40.876Z,5.70
2022-09-12T08:55:45.501Z,5.05
2022-09-12T08:56:48.421Z,5.03
2022-09-12T08:57:52.105Z,5.15
2022-09-12T08:58:54.969Z,5.15
2022-09-12T09:00:04.625Z,5.45
2022-09-12T09:01:40.735Z,5.15
2022-09-12T09:03:02.624Z,4.78
2022-09-12T09:04:35.854Z,5.47
2022-09-12T09:05:51.866Z,5.38
2022-09-12T09:07:15.529Z,5.10
2022-09-12T09:08:58.519Z,5.00
2022-09-12T09:10:20.985Z,4.80
2022-09-12T09:11:48.422Z,5.30
2022-09-12T09:13:52.135Z,4.93
2022-09-12T09:15:24.858Z,4.68
2022-09-12T09:16:39.801Z,4.68
2022-09-12T09:17:46.556Z,4.18
2022-09-12T09:18:50.833Z,3.88
2022-09-12T09:20:02.879Z,4.50
2022-09-12T09:21:23.892Z,4.50
2022-09-12T09:22:41.780Z,4.50
2022-09-12T09:23:49.639Z,4.20
2022-09-12T09:24:59.726Z,4.28
2022-09-12T09:26:10.954Z,4.57
2022-09-12T09:27:40.975Z,4.28
2022-09-12T09:28:55.311Z,5.00
2022-09-12T09:29:57.829Z,4.70
2022-09-12T09:31:01.861Z,4.28
2022-09-12T09:32:13.682Z,4.60
2022-09-12T09:33:22.294Z,4.60
2022-09-12T09:34:31.745Z,4.53
2022-09-12T09:35:49.240Z,4.30
2022-09-12T09:37:11.312Z,4.03
2022-09-12T09:38:31.796Z,4.30
2022-09-12T09:39:48.671Z,4.00
2022-09-12T09:40:53.814Z,3.80
2022-09-12T09:42:27.019Z,4.30
2022-09-12T09:43:29.240Z,3.95
2022-09-12T09:44:31.728Z,4.20
2022-09-12T09:45:34.006Z,3.95
2022-09-12T09:46:36.240Z,3.47
2022-09-12T09:47:38.375Z,3.80
2022-09-12T09:48:51.311Z,3.78
2022-09-12T09:49:53.486Z,3.60
2022-09-12T09:51:01.828Z,3.85
2022-09-12T09:52:07.304Z,3.60
2022-09-12T09:53:32.103Z,3.67
2022-09-12T09:54:55.336Z,4.00
2022-09-12T09:56:02.457Z,3.58
2022-09-12T09:57:05.274Z,3.70
2022-09-12T09:58:07.474Z,3.88
2022-09-12T09:59:17.048Z,4.00
2022-09-12T10:00:33.146Z,3.95
2022-09-12T10:01:35.333Z,4.15
2022-09-12T10:02:37.574Z,3.70
2022-09-12T10:03:51.810Z,3.78
2022-09-12T10:04:56.415Z,3.75
2022-09-12T10:06:07.451Z,3.28
2022-09-12T10:07:19.539Z,3.28
2022-09-12T10:08:31.906Z,3.25
2022-09-12T10:09:37.196Z,3.38
2022-09-12T10:10:53.601Z,3.33
2022-09-12T10:11:57.054Z,3.45
2022-09-12T10:13:25.898Z,3.28
2022-09-12T10:14:37.855Z,3.17
2022-09-12T10:15:56.445Z,3.00
2022-09-12T10:17:00.003Z,2.90
2022-09-12T10:18:03.247Z,2.78
2022-09-12T10:19:05.475Z,2.42
2022-09-12T10:20:35.760Z,2.70
2022-09-12T10:21:47.610Z,2.60
2022-09-12T10:22:49.836Z,2.50
2022-09-12T10:24:00.626Z,2.42
2022-09-12T10:25:04.067Z,2.20
2022-09-12T10:26:21.128Z,2.60
2022-09-12T10:27:26.229Z,2.60
2022-09-12T10:28:40.540Z,2.67
2022-09-12T10:30:02.182Z,2.42
2022-09-12T10:31:05.105Z,2.40
2022-09-12T10:32:09.352Z,2.35
2022-09-12T10:33:12.929Z,2.08
2022-09-12T10:34:27.953Z,2.20
2022-09-12T10:35:45.000Z,2.35
2022-09-12T10:36:47.702Z,2.25
2022-09-12T10:37:57.249Z,2.05
2022-09-12T10:39:01.538Z,2.40
2022-09-12T10:40:08.137Z,2.35
2022-09-12T10:41:12.025Z,2.15
2022-09-12T10:42:17.484Z,2.40
2022-09-12T10:43:29.874Z,2.38
2022-09-12T10:44:34.624Z,2.30
2022-09-12T10:45:37.919Z,2.40
2022-09-12T10:46:40.481Z,2.35
2022-09-12T10:47:42.845Z,2.33
2022-09-12T10:48:52.845Z,2.40
2022-09-12T10:50:26.293Z,2.10
2022-09-12T10:51:29.095Z,2.40
2022-09-12T10:52:34.363Z,2.28
2022-09-12T10:53:43.926Z,2.35
2022-09-12T10:54:46.104Z,2.22
2022-09-12T10:56:21.526Z,2.20
2022-09-12T10:57:29.665Z,2.40
2022-09-12T10:58:36.823Z,2.13
2022-09-12T10:59:57.601Z,1.90
2022-09-12T11:01:13.737Z,1.90
2022-09-12T11:02:29.614Z,1.60
2022-09-12T11:03:45.124Z,1.50
2022-09-12T11:04:59.387Z,1.80
2022-09-12T11:06:02.089Z,1.70
2022-09-12T11:07:29.733Z,1.95
2022-09-12T11:08:55.378Z,1.70
2022-09-12T11:10:15.838Z,1.67
2022-09-12T11:11:59.158Z,1.75
2022-09-12T11:13:22.499Z,1.75
2022-09-12T11:14:55.771Z,1.67
2022-09-12T11:16:16.173Z,1.98
2022-09-12T11:17:47.113Z,1.70
2022-09-12T11:19:04.961Z,2.00
2022-09-12T11:20:25.806Z,1.88
2022-09-12T11:21:58.353Z,1.60
2022-09-12T11:23:31.110Z,1.70
2022-09-12T11:24:43.508Z,1.50
2022-09-12T11:26:20.775Z,1.52
2022-09-12T11:27:44.161Z,1.52
2022-09-12T11:28:53.240Z,1.38
2022-09-12T11:30:02.199Z,1.58
2022-09-12T11:31:40.170Z,1.80
2022-09-12T11:33:06.556Z,1.90
2022-09-12T11:34:10.801Z,1.70
2022-09-12T11:35:30.535Z,1.80
2022-09-12T11:36:59.117Z,1.88
2022-09-12T11:38:10.811Z,1.70
2022-09-12T11:39:18.186Z,1.65
2022-09-12T11:40:50.438Z,1.77
2022-09-12T11:42:00.519Z,1.60
2022-09-12T11:43:18.205Z,1.67
2022-09-12T11:44:26.381Z,1.58
2022-09-12T11:45:38.887Z,1.58
2022-09-12T11:46:43.787Z,1.60
2022-09-12T11:47:52.176Z,1.50
2022-09-12T11:49:09.648Z,1.70
2022-09-12T11:50:26.403Z,1.77
2022-09-12T11:51:39.836Z,1.60
2022-09-12T11:52:41.981Z,1.70
2022-09-12T11:53:54.521Z,1.70
2022-09-12T11:55:08.417Z,1.60
2022-09-12T11:56:19.882Z,1.80
2022-09-12T11:57:39.389Z,1.60
2022-09-12T11:58:46.423Z,1.77
2022-09-12T12:00:15.021Z,1.88
2022-09-12T12:01:26.545Z,2.00
2022-09-12T12:02:31.116Z,1.63
2022-09-12T12:03:48.946Z,1.90
2022-09-12T12:05:17.804Z,1.75
2022-09-12T12:06:27.483Z,1.80
2022-09-12T12:07:45.325Z,1.70
2022-09-12T12:08:50.627Z,1.80
2022-09-12T12:09:52.985Z,1.80
2022-09-12T12:11:00.842Z,1.77
2022-09-12T12:12:15.951Z,1.67
2022-09-12T12:13:27.937Z,1.70
2022-09-12T12:14:43.323Z,1.60
2022-09-12T12:16:09.793Z,1.80
2022-09-12T12:17:24.193Z,1.70
2022-09-12T12:18:29.132Z,1.90
2022-09-12T12:19:36.929Z,1.80
2022-09-12T12:20:39.937Z,1.70
2022-09-12T12:21:44.496Z,1.73
2022-09-12T12:22:56.156Z,1.50
2022-09-12T12:24:15.476Z,1.65
2022-09-12T12:25:21.591Z,1.58
2022-09-12T12:26:54.847Z,1.50
2022-09-12T12:28:01.552Z,1.60
2022-09-12T12:29:03.886Z,1.60
2022-09-12T12:30:28.927Z,1.52
2022-09-12T12:31:31.397Z,1.52
2022-09-12T12:32:36.455Z,1.55
2022-09-12T12:33:38.535Z,1.50
2022-09-12T12:34:43.345Z,1.60
2022-09-12T12:36:04.122Z,1.55
2022-09-12T12:37:28.163Z,1.52
2022-09-12T12:38:31.556Z,1.40
2022-09-12T12:39:33.949Z,1.58
2022-09-12T12:40:38.945Z,1.42
2022-09-12T12:41:46.907Z,1.55
2022-09-12T12:42:49.291Z,1.48
2022-09-12T12:43:54.677Z,1.50
2022-09-12T12:44:56.930Z,1.80
2022-09-12T12:46:05.971Z,1.70
2022-09-12T12:47:18.684Z,1.80
2022-09-12T12:48:21.709Z,1.85
2022-09-12T12:49:28.592Z,1.60
2022-09-12T12:50:32.089Z,1.70
2022-09-12T12:51:48.577Z,1.83
2022-09-12T12:52:58.442Z,1.80
2022-09-12T12:54:04.071Z,1.85
2022-09-12T12:55:15.943Z,1.80
2022-09-12T12:56:38.306Z,1.83
2022-09-12T12:57:51.039Z,1.50
2022-09-12T12:59:02.582Z,1.85
2022-09-12T13:00:40.077Z,1.70
2022-09-12T13:01:56.455Z,1.70
2022-09-12T13:03:20.700Z,1.70
2022-09-12T13:04:26.996Z,1.55
2022-09-12T13:05:38.424Z,1.70
2022-09-12T13:06:45.554Z,1.65
2022-09-12T13:08:03.328Z,1.60
2022-09-12T13:09:09.750Z,1.50
2022-09-12T13:10:31.284Z,1.50
2022-09-12T13:11:41.342Z,1.25
2022-09-12T13:12:49.068Z,1.48
2022-09-12T13:13:58.216Z,1.73
2022-09-12T13:15:02.445Z,1.40
2022-09-12T13:16:05.153Z,1.50
2022-09-12T13:17:14.222Z,1.38
2022-09-12T13:18:26.495Z,1.63
2022-09-12T13:19:33.555Z,1.48
2022-09-12T13:20:52.368Z,1.48
2022-09-12T13:21:56.536Z,1.75
2022-09-12T13:22:59.310Z,1.80
2022-09-12T13:24:13.419Z,1.77
2022-09-12T13:25:38.938Z,1.48
2022-09-12T13:26:44.048Z,1.40
2022-09-12T13:28:12.078Z,1.50
2022-09-12T13:29:28.201Z,1.48
2022-09-12T13:30:33.162Z,1.50
2022-09-12T13:31:35.674Z,1.65
2022-09-12T13:32:38.253Z,1.70
2022-09-12T13:33:47.009Z,1.80
2022-09-12T13:35:00.679Z,1.77
2022-09-12T13:36:11.931Z,1.70
2022-09-12T13:37:49.697Z,1.50
2022-09-12T13:38:58.499Z,1.70
2022-09-12T13:40:37.998Z,1.48
2022-09-12T13:42:08.007Z,1.42
2022-09-12T13:43:25.407Z,1.70
2022-09-12T13:44:35.526Z,1.50
2022-09-12T13:45:39.740Z,1.40
2022-09-12T13:46:44.846Z,1.20
2022-09-12T13:47:54.270Z,1.33
2022-09-12T13:49:07.187Z,1.58
2022-09-12T13:50:24.565Z,1.40
2022-09-12T13:51:29.601Z,1.42
2022-09-12T13:52:34.735Z,1.40
2022-09-12T13:53:46.372Z,1.40
2022-09-12T13:54:51.984Z,1.33
2022-09-12T13:55:58.420Z,1.33
2022-09-12T13:57:03.106Z,1.50
2022-09-12T13:58:14.472Z,1.40
2022-09-12T13:59:16.676Z,1.35
2022-09-12T14:00:19.837Z,1.70
2022-09-12T14:01:22.897Z,1.60
2022-09-12T14:02:28.924Z,1.30
2022-09-12T14:03:59.625Z,1.20
2022-09-12T14:05:11.781Z,1.60
2022-09-12T14:06:16.664Z,1.48
2022-09-12T14:07:25.860Z,1.52
2022-09-12T14:08:28.328Z,1.40
2022-09-12T14:09:42.646Z,1.70
2022-09-12T14:10:47.855Z,1.30
2022-09-12T14:11:52.184Z,1.40
2022-09-12T14:12:56.711Z,1.55
2022-09-12T14:14:02.394Z,1.50
2022-09-12T14:15:20.214Z,1.40
2022-09-12T14:16:26.475Z,1.50
2022-09-12T14:17:36.885Z,1.70
2022-09-12T14:18:45.191Z,1.50
2022-09-12T14:19:48.378Z,1.50
2022-09-12T14:20:56.184Z,1.58
2022-09-12T14:21:58.622Z,1.50
2022-09-12T14:23:06.105Z,1.52
2022-09-12T14:24:12.731Z,1.52
2022-09-12T14:25:18.024Z,1.60
2022-09-12T14:26:20.414Z,1.40
2022-09-12T14:27:29.230Z,1.60
2022-09-12T14:28:34.471Z,1.58
2022-09-12T14:29:39.337Z,1.40
2022-09-12T14:30:41.591Z,1.40
2022-09-12T14:31:44.287Z,1.50
2022-09-12T14:33:25.745Z,1.55
2022-09-12T14:34:28.186Z,1.33
2022-09-12T14:35:30.764Z,1.40
2022-09-12T14:36:41.687Z,1.52
2022-09-12T14:37:46.535Z,1.33
2022-09-12T14:38:59.214Z,1.40
2022-09-12T14:40:01.652Z,1.60
2022-09-12T14:41:08.522Z,1.50
2022-09-12T14:42:18.388Z,1.45
2022-09-12T14:43:36.167Z,1.47
2022-09-12T14:44:39.500Z,1.30
2022-09-12T14:45:44.539Z,1.60
2022-09-12T14:46:48.687Z,1.42
2022-09-12T14:47:53.262Z,1.30
2022-09-12T14:49:31.932Z,1.40
2022-09-12T14:50:36.064Z,1.40
2022-09-12T14:51:54.366Z,1.50
2022-09-12T14:53:31.059Z,1.50
2022-09-12T14:54:33.941Z,1.83
2022-09-12T14:55:44.761Z,1.70
2022-09-12T14:57:00.941Z,1.70
2022-09-12T14:58:15.930Z,1.60
2022-09-12T14:59:39.735Z,1.63
2022-09-12T15:01:00.358Z,1.67
2022-09-12T15:02:22.163Z,1.70
2022-09-12T15:03:29.187Z,1.60
2022-09-12T15:04:46.702Z,1.50
2022-09-12T15:05:50.465Z,1.70
2022-09-12T15:06:52.638Z,1.50